sensor_id;sensor_type;location;lat;lon;timestamp;pressure;altitude;pressure_sealevel;temperature;humidity
5609;BME280;2826;51.354;9.588;2022-07-22T00:01:08;98493.66;;;18.49;97.11
5609;BME280;2826;51.354;9.588;2022-07-22T00:03:35;98503.13;;;18.52;96.96
5609;BME280;2826;51.354;9.588;2022-07-22T00:06:02;98499.56;;;18.53;96.64
5609;BME280;2826;51.354;9.588;2022-07-22T00:08:30;98495.47;;;18.49;97.45
5609;BME280;2826;51.354;9.588;2022-07-22T00:10:57;98496.28;;;18.49;96.99
5609;BME280;2826;51.354;9.588;2022-07-22T00:13:24;98502.41;;;18.50;97.02
5609;BME280;2826;51.354;9.588;2022-07-22T00:15:51;98498.28;;;18.46;97.68
5609;BME280;2826;51.354;9.588;2022-07-22T00:18:18;98493.13;;;18.44;97.71
5609;BME280;2826;51.354;9.588;2022-07-22T00:20:44;98495.03;;;18.42;97.86
5609;BME280;2826;51.354;9.588;2022-07-22T00:23:11;98494.94;;;18.44;98.12
5609;BME280;2826;51.354;9.588;2022-07-22T00:25:39;98502.41;;;18.50;97.30
5609;BME280;2826;51.354;9.588;2022-07-22T00:28:06;98498.09;;;18.49;97.95
5609;BME280;2826;51.354;9.588;2022-07-22T00:30:33;98501.78;;;18.46;98.05
5609;BME280;2826;51.354;9.588;2022-07-22T00:33:00;98502.69;;;18.45;98.27
5609;BME280;2826;51.354;9.588;2022-07-22T00:35:27;98496.91;;;18.40;98.62
5609;BME280;2826;51.354;9.588;2022-07-22T00:37:54;98499.53;;;18.40;98.85
5609;BME280;2826;51.354;9.588;2022-07-22T00:40:21;98499.34;;;18.43;98.51
5609;BME280;2826;51.354;9.588;2022-07-22T00:42:49;98495.13;;;18.40;98.02
5609;BME280;2826;51.354;9.588;2022-07-22T00:45:16;98499.09;;;18.33;98.81
5609;BME280;2826;51.354;9.588;2022-07-22T00:47:43;98503.41;;;18.34;98.77
5609;BME280;2826;51.354;9.588;2022-07-22T00:50:10;98465.34;;;18.14;98.75
5609;BME280;2826;51.354;9.588;2022-07-22T00:52:38;98499.53;;;18.40;98.94
5609;BME280;2826;51.354;9.588;2022-07-22T00:55:06;98499.53;;;18.40;98.55
5609;BME280;2826;51.354;9.588;2022-07-22T00:57:33;98494.72;;;18.34;98.96
5609;BME280;2826;51.354;9.588;2022-07-22T01:00:03;98467.06;;;18.15;98.95
5609;BME280;2826;51.354;9.588;2022-07-22T01:02:31;98487.44;;;18.24;99.86
5609;BME280;2826;51.354;9.588;2022-07-22T01:04:58;98494.56;;;18.22;99.70
5609;BME280;2826;51.354;9.588;2022-07-22T01:07:25;98496.28;;;18.23;100.00
5609;BME280;2826;51.354;9.588;2022-07-22T01:09:52;98493.75;;;18.22;100.00
5609;BME280;2826;51.354;9.588;2022-07-22T01:12:19;98495.50;;;18.21;99.87
5609;BME280;2826;51.354;9.588;2022-07-22T01:14:46;98491.03;;;18.23;99.97
5609;BME280;2826;51.354;9.588;2022-07-22T01:17:14;98502.66;;;18.19;100.00
5609;BME280;2826;51.354;9.588;2022-07-22T01:19:40;98495.72;;;18.18;100.00
5609;BME280;2826;51.354;9.588;2022-07-22T01:22:09;98496.66;;;18.17;100.00
5609;BME280;2826;51.354;9.588;2022-07-22T01:24:35;98490.16;;;18.23;100.00
5609;BME280;2826;51.354;9.588;2022-07-22T01:27:02;98491.31;;;18.19;100.00
5609;BME280;2826;51.354;9.588;2022-07-22T01:29:29;98483.84;;;18.12;100.00
5609;BME280;2826;51.354;9.588;2022-07-22T01:31:57;98504.53;;;18.17;100.00
5609;BME280;2826;51.354;9.588;2022-07-22T01:34:24;98504.84;;;18.12;100.00
5609;BME280;2826;51.354;9.588;2022-07-22T01:36:52;98503.28;;;18.10;100.00
5609;BME280;2826;51.354;9.588;2022-07-22T01:39:20;98498.19;;;18.07;100.00
5609;BME280;2826;51.354;9.588;2022-07-22T01:41:47;98449.50;;;17.75;100.00
5609;BME280;2826;51.354;9.588;2022-07-22T01:44:14;98496.50;;;18.06;100.00
5609;BME280;2826;51.354;9.588;2022-07-22T01:46:41;98502.56;;;18.06;100.00
5609;BME280;2826;51.354;9.588;2022-07-22T01:49:08;98503.28;;;18.10;100.00
5609;BME280;2826;51.354;9.588;2022-07-22T01:51:38;98505.38;;;18.18;100.00
5609;BME280;2826;51.354;9.588;2022-07-22T01:54:05;98503.59;;;18.18;100.00
5609;BME280;2826;51.354;9.588;2022-07-22T01:56:33;98504.72;;;18.14;100.00
5609;BME280;2826;51.354;9.588;2022-07-22T01:59:00;98503.91;;;18.13;100.00
5609;BME280;2826;51.354;9.588;2022-07-22T02:01:29;98504.00;;;18.12;100.00
5609;BME280;2826;51.354;9.588;2022-07-22T02:03:55;98462.31;;;17.80;100.00
5609;BME280;2826;51.354;9.588;2022-07-22T02:06:22;98514.31;;;18.00;100.00
5609;BME280;2826;51.354;9.588;2022-07-22T02:08:51;98505.91;;;17.95;100.00
5609;BME280;2826;51.354;9.588;2022-07-22T02:11:42;98504.50;;;17.89;100.00
5609;BME280;2826;51.354;9.588;2022-07-22T02:14:10;98505.00;;;17.82;100.00
5609;BME280;2826;51.354;9.588;2022-07-22T02:16:37;98505.31;;;17.77;100.00
5609;BME280;2826;51.354;9.588;2022-07-22T02:19:04;98505.78;;;17.69;100.00
5609;BME280;2826;51.354;9.588;2022-07-22T02:21:32;98506.00;;;17.66;100.00
5609;BME280;2826;51.354;9.588;2022-07-22T02:23:59;98504.34;;;17.65;100.00
5609;BME280;2826;51.354;9.588;2022-07-22T02:26:27;98511.44;;;17.63;100.00
5609;BME280;2826;51.354;9.588;2022-07-22T02:28:55;98516.88;;;17.60;100.00
5609;BME280;2826;51.354;9.588;2022-07-22T02:31:22;98509.59;;;17.50;100.00
5609;BME280;2826;51.354;9.588;2022-07-22T02:33:49;98516.03;;;17.59;100.00
5609;BME280;2826;51.354;9.588;2022-07-22T02:36:17;98516.69;;;17.63;100.00
5609;BME280;2826;51.354;9.588;2022-07-22T02:38:44;98515.19;;;17.59;100.00
5609;BME280;2826;51.354;9.588;2022-07-22T02:41:11;98509.94;;;17.59;100.00
5609;BME280;2826;51.354;9.588;2022-07-22T02:43:47;98516.31;;;17.55;100.00
5609;BME280;2826;51.354;9.588;2022-07-22T02:46:15;98512.97;;;17.53;100.00
5609;BME280;2826;51.354;9.588;2022-07-22T02:48:42;98517.34;;;17.52;100.00
5609;BME280;2826;51.354;9.588;2022-07-22T02:51:12;98524.84;;;17.44;100.00
5609;BME280;2826;51.354;9.588;2022-07-22T02:53:39;98493.44;;;17.29;100.00
5609;BME280;2826;51.354;9.588;2022-07-22T02:56:06;98514.47;;;17.42;100.00
5609;BME280;2826;51.354;9.588;2022-07-22T02:58:34;98515.22;;;17.44;100.00
5609;BME280;2826;51.354;9.588;2022-07-22T03:01:00;98524.03;;;17.43;100.00
5609;BME280;2826;51.354;9.588;2022-07-22T03:03:32;98520.75;;;17.40;100.00
5609;BME280;2826;51.354;9.588;2022-07-22T03:06:00;98499.78;;;17.25;100.00
5609;BME280;2826;51.354;9.588;2022-07-22T03:08:35;98525.06;;;17.41;100.00
5609;BME280;2826;51.354;9.588;2022-07-22T03:11:02;98527.78;;;17.39;100.00
5609;BME280;2826;51.354;9.588;2022-07-22T03:13:30;98530.69;;;17.34;100.00
5609;BME280;2826;51.354;9.588;2022-07-22T03:15:58;98522.81;;;17.34;100.00
5609;BME280;2826;51.354;9.588;2022-07-22T03:18:25;98523.84;;;17.32;100.00
5609;BME280;2826;51.354;9.588;2022-07-22T03:20:53;98521.53;;;17.27;100.00
5609;BME280;2826;51.354;9.588;2022-07-22T03:23:21;98516.38;;;17.26;100.00
5609;BME280;2826;51.354;9.588;2022-07-22T03:25:47;98523.09;;;17.15;100.00
5609;BME280;2826;51.354;9.588;2022-07-22T03:28:14;98529.19;;;17.16;100.00
5609;BME280;2826;51.354;9.588;2022-07-22T03:30:41;98523.09;;;17.15;100.00
5609;BME280;2826;51.354;9.588;2022-07-22T03:33:08;98517.84;;;17.15;100.00
5609;BME280;2826;51.354;9.588;2022-07-22T03:35:39;98471.34;;;16.75;100.00
5609;BME280;2826;51.354;9.588;2022-07-22T03:38:07;98522.75;;;17.07;100.00
5609;BME280;2826;51.354;9.588;2022-07-22T03:40:36;98524.59;;;17.05;100.00
5609;BME280;2826;51.354;9.588;2022-07-22T03:43:03;98527.22;;;17.05;100.00
5609;BME280;2826;51.354;9.588;2022-07-22T03:45:31;98520.53;;;16.99;100.00
5609;BME280;2826;51.354;9.588;2022-07-22T03:47:58;98532.47;;;17.05;100.00
5609;BME280;2826;51.354;9.588;2022-07-22T03:50:32;98536.00;;;17.04;100.00
5609;BME280;2826;51.354;9.588;2022-07-22T03:52:59;98543.84;;;17.04;100.00
5609;BME280;2826;51.354;9.588;2022-07-22T03:55:28;98536.94;;;17.03;100.00
5609;BME280;2826;51.354;9.588;2022-07-22T03:57:56;98533.31;;;17.05;100.00
5609;BME280;2826;51.354;9.588;2022-07-22T04:00:27;98543.25;;;17.15;100.00
5609;BME280;2826;51.354;9.588;2022-07-22T04:02:55;98552.03;;;17.14;100.00
5609;BME280;2826;51.354;9.588;2022-07-22T04:05:55;98545.63;;;17.03;100.00
5609;BME280;2826;51.354;9.588;2022-07-22T04:08:33;98539.81;;;16.98;100.00
5609;BME280;2826;51.354;9.588;2022-07-22T04:11:03;98544.88;;;17.01;100.00
5609;BME280;2826;51.354;9.588;2022-07-22T04:13:30;98541.31;;;16.88;100.00
5609;BME280;2826;51.354;9.588;2022-07-22T04:15:58;98545.72;;;16.87;100.00
5609;BME280;2826;51.354;9.588;2022-07-22T04:18:29;98539.72;;;16.85;100.00
5609;BME280;2826;51.354;9.588;2022-07-22T04:20:56;98545.13;;;16.82;100.00
5609;BME280;2826;51.354;9.588;2022-07-22T04:23:23;98546.16;;;16.79;100.00
5609;BME280;2826;51.354;9.588;2022-07-22T04:25:59;98545.50;;;16.76;100.00
5609;BME280;2826;51.354;9.588;2022-07-22T04:28:27;98552.06;;;16.83;100.00
5609;BME280;2826;51.354;9.588;2022-07-22T04:30:55;98551.22;;;16.82;100.00
5609;BME280;2826;51.354;9.588;2022-07-22T04:33:21;98549.03;;;16.75;100.00
5609;BME280;2826;51.354;9.588;2022-07-22T04:35:49;98554.38;;;16.73;100.00
5609;BME280;2826;51.354;9.588;2022-07-22T04:38:17;98546.72;;;16.70;100.00
5609;BME280;2826;51.354;9.588;2022-07-22T04:40:55;98547.91;;;16.64;100.00
5609;BME280;2826;51.354;9.588;2022-07-22T04:43:23;98549.59;;;16.65;100.00
5609;BME280;2826;51.354;9.588;2022-07-22T04:45:51;98559.88;;;16.68;100.00
5609;BME280;2826;51.354;9.588;2022-07-22T04:48:18;98548.41;;;16.71;100.00
5609;BME280;2826;51.354;9.588;2022-07-22T04:50:47;98549.59;;;16.65;100.00
5609;BME280;2826;51.354;9.588;2022-07-22T04:53:13;98556.50;;;16.66;100.00
5609;BME280;2826;51.354;9.588;2022-07-22T04:55:41;98552.22;;;16.65;100.00
5609;BME280;2826;51.354;9.588;2022-07-22T04:58:08;98560.75;;;16.69;100.00
5609;BME280;2826;51.354;9.588;2022-07-22T05:00:35;98568.69;;;16.67;100.00
5609;BME280;2826;51.354;9.588;2022-07-22T05:03:03;98559.56;;;16.58;100.00
5609;BME280;2826;51.354;9.588;2022-07-22T05:05:31;98562.19;;;16.58;100.00
5609;BME280;2826;51.354;9.588;2022-07-22T05:07:58;98568.38;;;16.57;100.00
5609;BME280;2826;51.354;9.588;2022-07-22T05:10:27;98551.31;;;16.50;100.00
5609;BME280;2826;51.354;9.588;2022-07-22T05:12:53;98556.47;;;16.52;100.00
5609;BME280;2826;51.354;9.588;2022-07-22T05:15:20;98561.72;;;16.52;100.00
5609;BME280;2826;51.354;9.588;2022-07-22T05:17:47;98564.41;;;16.50;100.00
5609;BME280;2826;51.354;9.588;2022-07-22T05:20:26;98560.13;;;16.49;100.00
5609;BME280;2826;51.354;9.588;2022-07-22T05:22:52;98568.63;;;16.53;100.00
5609;BME280;2826;51.354;9.588;2022-07-22T05:25:23;98562.13;;;16.60;100.00
5609;BME280;2826;51.354;9.588;2022-07-22T05:27:50;98557.16;;;16.55;100.00
5609;BME280;2826;51.354;9.588;2022-07-22T05:30:19;98556.78;;;16.62;100.00
5609;BME280;2826;51.354;9.588;2022-07-22T05:32:46;98573.06;;;16.67;100.00
5609;BME280;2826;51.354;9.588;2022-07-22T05:35:16;98573.06;;;16.67;100.00
5609;BME280;2826;51.354;9.588;2022-07-22T05:37:44;98578.47;;;16.64;100.00
5609;BME280;2826;51.354;9.588;2022-07-22T05:40:12;98580.34;;;16.62;100.00
5609;BME280;2826;51.354;9.588;2022-07-22T05:42:40;98574.75;;;16.68;100.00
5609;BME280;2826;51.354;9.588;2022-07-22T05:45:07;98584.09;;;16.72;100.00
5609;BME280;2826;51.354;9.588;2022-07-22T05:47:34;98579.81;;;16.71;100.00
5609;BME280;2826;51.354;9.588;2022-07-22T05:50:01;98575.06;;;16.78;100.00
5609;BME280;2826;51.354;9.588;2022-07-22T05:52:28;98582.53;;;16.84;100.00
5609;BME280;2826;51.354;9.588;2022-07-22T05:54:59;98586.59;;;16.90;100.00
5609;BME280;2826;51.354;9.588;2022-07-22T05:57:25;98591.56;;;16.94;100.00
5609;BME280;2826;51.354;9.588;2022-07-22T05:59:52;98589.69;;;16.96;100.00
5609;BME280;2826;51.354;9.588;2022-07-22T06:02:19;98586.81;;;17.01;100.00
5609;BME280;2826;51.354;9.588;2022-07-22T06:04:48;98584.88;;;17.05;100.00
5609;BME280;2826;51.354;9.588;2022-07-22T06:07:17;98587.00;;;17.13;100.00
5609;BME280;2826;51.354;9.588;2022-07-22T06:09:48;98590.09;;;17.19;99.56
5609;BME280;2826;51.354;9.588;2022-07-22T06:12:16;98591.44;;;17.27;99.33
5609;BME280;2826;51.354;9.588;2022-07-22T06:14:43;98600.25;;;17.26;99.32
5609;BME280;2826;51.354;9.588;2022-07-22T06:17:11;98593.09;;;17.28;99.59
5609;BME280;2826;51.354;9.588;2022-07-22T06:19:39;98597.78;;;17.37;98.26
5609;BME280;2826;51.354;9.588;2022-07-22T06:22:06;98595.72;;;17.42;98.36
5609;BME280;2826;51.354;9.588;2022-07-22T06:24:32;98593.38;;;17.52;97.15
5609;BME280;2826;51.354;9.588;2022-07-22T06:26:59;98599.28;;;17.56;96.34
5609;BME280;2826;51.354;9.588;2022-07-22T06:29:27;98590.09;;;17.63;96.10
5609;BME280;2826;51.354;9.588;2022-07-22T06:31:54;98592.72;;;17.63;95.36
5609;BME280;2826;51.354;9.588;2022-07-22T06:34:21;98601.72;;;17.59;93.00
5609;BME280;2826;51.354;9.588;2022-07-22T06:36:59;98594.34;;;17.51;93.06
5609;BME280;2826;51.354;9.588;2022-07-22T06:39:26;98597.91;;;17.50;93.81
5609;BME280;2826;51.354;9.588;2022-07-22T06:41:56;98587.59;;;17.47;93.65
5609;BME280;2826;51.354;9.588;2022-07-22T06:45:03;98597.59;;;17.55;92.28
5609;BME280;2826;51.354;9.588;2022-07-22T06:47:39;98601.16;;;17.54;92.70
5609;BME280;2826;51.354;9.588;2022-07-22T06:50:09;98599.66;;;17.49;93.35
5609;BME280;2826;51.354;9.588;2022-07-22T06:52:39;98596.94;;;17.51;93.77
5609;BME280;2826;51.354;9.588;2022-07-22T06:55:07;98594.72;;;17.59;93.70
5609;BME280;2826;51.354;9.588;2022-07-22T06:57:38;98589.06;;;17.66;93.13
5609;BME280;2826;51.354;9.588;2022-07-22T07:00:08;98594.69;;;17.74;93.19
5609;BME280;2826;51.354;9.588;2022-07-22T07:02:57;98577.91;;;17.76;92.86
5609;BME280;2826;51.354;9.588;2022-07-22T07:05:24;98592.47;;;17.95;92.47
5609;BME280;2826;51.354;9.588;2022-07-22T07:07:53;98572.53;;;17.93;91.44
5609;BME280;2826;51.354;9.588;2022-07-22T07:10:20;98589.75;;;18.11;91.09
5609;BME280;2826;51.354;9.588;2022-07-22T07:12:56;98589.91;;;18.23;89.67
5609;BME280;2826;51.354;9.588;2022-07-22T07:15:36;98581.63;;;18.29;89.28
5609;BME280;2826;51.354;9.588;2022-07-22T07:18:07;98585.63;;;18.35;88.05
5609;BME280;2826;51.354;9.588;2022-07-22T07:20:34;98584.06;;;18.32;87.49
5609;BME280;2826;51.354;9.588;2022-07-22T07:23:02;98578.91;;;18.31;88.02
5609;BME280;2826;51.354;9.588;2022-07-22T07:25:32;98574.75;;;18.41;87.70
5609;BME280;2826;51.354;9.588;2022-07-22T07:28:00;98583.97;;;18.47;86.59
5609;BME280;2826;51.354;9.588;2022-07-22T07:31:06;98583.06;;;18.48;86.69
5609;BME280;2826;51.354;9.588;2022-07-22T07:33:34;98577.59;;;18.51;85.86
5609;BME280;2826;51.354;9.588;2022-07-22T07:36:01;98576.78;;;18.50;85.75
5609;BME280;2826;51.354;9.588;2022-07-22T07:38:37;98578.03;;;18.58;86.13
5609;BME280;2826;51.354;9.588;2022-07-22T07:41:08;98588.44;;;18.59;85.94
5609;BME280;2826;51.354;9.588;2022-07-22T07:43:37;98590.63;;;18.52;86.07
5609;BME280;2826;51.354;9.588;2022-07-22T07:46:04;98589.34;;;18.45;86.37
5609;BME280;2826;51.354;9.588;2022-07-22T07:48:32;98579.75;;;18.31;87.62
5609;BME280;2826;51.354;9.588;2022-07-22T07:51:00;98574.88;;;18.25;87.59
5609;BME280;2826;51.354;9.588;2022-07-22T07:53:27;98580.81;;;18.41;86.69
5609;BME280;2826;51.354;9.588;2022-07-22T07:55:54;98583.59;;;18.53;85.90
5609;BME280;2826;51.354;9.588;2022-07-22T07:58:21;98586.66;;;18.60;85.53
5609;BME280;2826;51.354;9.588;2022-07-22T08:00:49;98578.03;;;18.58;85.14
5609;BME280;2826;51.354;9.588;2022-07-22T08:03:16;98566.88;;;18.54;84.53
5609;BME280;2826;51.354;9.588;2022-07-22T08:05:45;98579.22;;;18.66;84.14
5609;BME280;2826;51.354;9.588;2022-07-22T08:08:16;98574.06;;;18.78;84.42
5609;BME280;2826;51.354;9.588;2022-07-22T08:10:44;98580.06;;;18.93;83.85
5609;BME280;2826;51.354;9.588;2022-07-22T08:13:11;98590.50;;;19.08;83.37
5609;BME280;2826;51.354;9.588;2022-07-22T08:15:56;98587.81;;;19.22;82.24
5609;BME280;2826;51.354;9.588;2022-07-22T08:18:25;98582.94;;;19.42;80.67
5609;BME280;2826;51.354;9.588;2022-07-22T08:20:53;98580.59;;;19.50;79.71
5609;BME280;2826;51.354;9.588;2022-07-22T08:23:28;98582.47;;;19.61;79.50
5609;BME280;2826;51.354;9.588;2022-07-22T08:25:55;98577.41;;;19.71;78.51
5609;BME280;2826;51.354;9.588;2022-07-22T08:28:22;98575.59;;;19.84;77.93
5609;BME280;2826;51.354;9.588;2022-07-22T08:30:49;98579.88;;;19.98;75.86
5609;BME280;2826;51.354;9.588;2022-07-22T08:33:17;98568.63;;;20.21;74.08
5609;BME280;2826;51.354;9.588;2022-07-22T08:35:44;98584.53;;;20.19;73.77
5609;BME280;2826;51.354;9.588;2022-07-22T08:38:12;98575.34;;;20.25;73.27
5609;BME280;2826;51.354;9.588;2022-07-22T08:40:39;98567.09;;;20.30;73.70
5609;BME280;2826;51.354;9.588;2022-07-22T08:43:06;98571.19;;;20.34;74.63
5609;BME280;2826;51.354;9.588;2022-07-22T08:45:34;98557.63;;;20.27;73.36
5609;BME280;2826;51.354;9.588;2022-07-22T08:48:02;98562.91;;;20.27;74.54
5609;BME280;2826;51.354;9.588;2022-07-22T08:50:52;98553.25;;;20.39;74.46
5609;BME280;2826;51.354;9.588;2022-07-22T08:53:46;98556.47;;;20.67;72.17
5609;BME280;2826;51.354;9.588;2022-07-22T08:56:14;98555.47;;;20.93;71.74
5609;BME280;2826;51.354;9.588;2022-07-22T08:58:41;98551.53;;;21.21;69.92
5609;BME280;2826;51.354;9.588;2022-07-22T09:03:47;98554.50;;;21.39;68.89
5609;BME280;2826;51.354;9.588;2022-07-22T09:06:17;98558.09;;;21.27;68.72
5609;BME280;2826;51.354;9.588;2022-07-22T09:08:53;98552.72;;;21.28;68.51
5609;BME280;2826;51.354;9.588;2022-07-22T09:11:40;98558.00;;;21.28;67.11
5609;BME280;2826;51.354;9.588;2022-07-22T09:14:44;98538.81;;;21.26;67.40
5609;BME280;2826;51.354;9.588;2022-07-22T09:17:50;98561.59;;;21.50;66.58
5609;BME280;2826;51.354;9.588;2022-07-22T09:20:31;98559.78;;;21.74;67.64
5609;BME280;2826;51.354;9.588;2022-07-22T09:23:19;98556.63;;;21.91;66.22
5609;BME280;2826;51.354;9.588;2022-07-22T09:25:52;98554.16;;;22.11;64.76
5609;BME280;2826;51.354;9.588;2022-07-22T09:28:37;98555.41;;;22.61;64.22
5609;BME280;2826;51.354;9.588;2022-07-22T09:31:39;98558.84;;;22.73;61.39
5609;BME280;2826;51.354;9.588;2022-07-22T09:34:26;98558.69;;;22.75;61.26
5609;BME280;2826;51.354;9.588;2022-07-22T09:36:56;98556.78;;;22.55;60.94
5609;BME280;2826;51.354;9.588;2022-07-22T09:39:26;98558.88;;;22.40;62.54
5609;BME280;2826;51.354;9.588;2022-07-22T09:42:00;98561.53;;;22.29;62.21
5609;BME280;2826;51.354;9.588;2022-07-22T09:44:27;98565.72;;;21.99;62.90
5609;BME280;2826;51.354;9.588;2022-07-22T09:46:57;98567.56;;;21.64;63.91
5609;BME280;2826;51.354;9.588;2022-07-22T09:49:40;98570.09;;;21.54;65.25
5609;BME280;2826;51.354;9.588;2022-07-22T09:52:26;98558.44;;;21.91;63.66
5609;BME280;2826;51.354;9.588;2022-07-22T09:55:06;98569.19;;;22.11;62.40
5609;BME280;2826;51.354;9.588;2022-07-22T09:57:34;98569.25;;;21.88;64.18
5609;BME280;2826;51.354;9.588;2022-07-22T10:00:03;98566.88;;;21.62;65.82
5609;BME280;2826;51.354;9.588;2022-07-22T10:02:48;98559.31;;;21.46;66.02
5609;BME280;2826;51.354;9.588;2022-07-22T10:05:18;98559.44;;;21.33;66.81
5609;BME280;2826;51.354;9.588;2022-07-22T10:07:47;98561.59;;;21.27;68.48
5609;BME280;2826;51.354;9.588;2022-07-22T10:10:15;98559.91;;;21.15;69.70
5609;BME280;2826;51.354;9.588;2022-07-22T10:12:47;98547.09;;;21.33;70.03
5609;BME280;2826;51.354;9.588;2022-07-22T10:15:15;98555.72;;;21.24;68.42
5609;BME280;2826;51.354;9.588;2022-07-22T10:17:46;98553.44;;;21.08;69.72
5609;BME280;2826;51.354;9.588;2022-07-22T10:20:16;98556.91;;;21.08;69.35
5609;BME280;2826;51.354;9.588;2022-07-22T10:22:52;98552.00;;;21.04;69.94
5609;BME280;2826;51.354;9.588;2022-07-22T10:25:21;98559.66;;;21.07;70.31
5609;BME280;2826;51.354;9.588;2022-07-22T10:27:52;98559.78;;;21.17;69.12
5609;BME280;2826;51.354;9.588;2022-07-22T10:30:21;98558.47;;;21.22;68.98
5609;BME280;2826;51.354;9.588;2022-07-22T11:30:30;98543.34;;;22.14;65.06
5609;BME280;2826;51.354;9.588;2022-07-22T11:32:57;98544.81;;;22.07;65.09
5609;BME280;2826;51.354;9.588;2022-07-22T11:35:24;98537.00;;;22.05;64.86
5609;BME280;2826;51.354;9.588;2022-07-22T11:37:55;98541.94;;;22.10;65.49
5609;BME280;2826;51.354;9.588;2022-07-22T11:40:22;98541.91;;;22.22;64.91
5609;BME280;2826;51.354;9.588;2022-07-22T11:43:00;98542.16;;;22.07;64.34
5609;BME280;2826;51.354;9.588;2022-07-22T11:45:27;98536.31;;;22.03;65.05
5609;BME280;2826;51.354;9.588;2022-07-22T11:47:55;98540.00;;;22.12;63.76
5609;BME280;2826;51.354;9.588;2022-07-22T11:50:29;98538.59;;;22.08;64.95
5609;BME280;2826;51.354;9.588;2022-07-22T11:52:56;98543.38;;;22.03;64.57
5609;BME280;2826;51.354;9.588;2022-07-22T11:55:23;98532.69;;;22.04;64.44
5609;BME280;2826;51.354;9.588;2022-07-22T11:57:50;98534.25;;;22.07;64.48
5609;BME280;2826;51.354;9.588;2022-07-22T12:00:18;98523.91;;;22.15;64.94
5609;BME280;2826;51.354;9.588;2022-07-22T12:02:45;98525.72;;;22.15;63.98
5609;BME280;2826;51.354;9.588;2022-07-22T12:05:13;98525.66;;;22.26;63.96
5609;BME280;2826;51.354;9.588;2022-07-22T12:07:40;98523.00;;;22.26;63.28
5609;BME280;2826;51.354;9.588;2022-07-22T12:10:07;98523.41;;;22.22;63.09
5609;BME280;2826;51.354;9.588;2022-07-22T12:12:40;98522.81;;;22.18;63.66
5609;BME280;2826;51.354;9.588;2022-07-22T12:15:08;98520.91;;;22.20;64.25
5609;BME280;2826;51.354;9.588;2022-07-22T12:17:36;98520.81;;;22.31;63.71
5609;BME280;2826;51.354;9.588;2022-07-22T12:20:09;98510.38;;;22.30;61.94
5609;BME280;2826;51.354;9.588;2022-07-22T12:22:45;98502.22;;;22.33;62.59
5609;BME280;2826;51.354;9.588;2022-07-22T12:25:13;98502.84;;;22.58;61.72
5609;BME280;2826;51.354;9.588;2022-07-22T12:27:39;98502.25;;;22.76;61.20
5609;BME280;2826;51.354;9.588;2022-07-22T12:30:11;98502.50;;;23.04;59.98
5609;BME280;2826;51.354;9.588;2022-07-22T12:32:46;98506.16;;;23.13;58.19
5609;BME280;2826;51.354;9.588;2022-07-22T12:35:14;98499.66;;;23.27;59.01
5609;BME280;2826;51.354;9.588;2022-07-22T12:37:42;98500.44;;;23.48;57.71
5609;BME280;2826;51.354;9.588;2022-07-22T12:40:17;98503.25;;;23.57;57.83
5609;BME280;2826;51.354;9.588;2022-07-22T12:42:46;98495.75;;;23.62;57.17
5609;BME280;2826;51.354;9.588;2022-07-22T12:45:15;98500.91;;;23.64;57.32
5609;BME280;2826;51.354;9.588;2022-07-22T12:47:49;98491.13;;;23.64;57.79
5609;BME280;2826;51.354;9.588;2022-07-22T12:50:21;98501.84;;;23.53;57.26
5609;BME280;2826;51.354;9.588;2022-07-22T12:52:49;98496.09;;;23.38;57.51
5609;BME280;2826;51.354;9.588;2022-07-22T12:55:18;98503.38;;;23.14;58.46
5609;BME280;2826;51.354;9.588;2022-07-22T12:57:45;98500.06;;;23.22;59.25
5609;BME280;2826;51.354;9.588;2022-07-22T13:00:16;98497.56;;;23.20;59.41
5609;BME280;2826;51.354;9.588;2022-07-22T13:02:43;98504.91;;;23.17;59.01
5609;BME280;2826;51.354;9.588;2022-07-22T13:05:10;98499.50;;;23.18;58.37
5609;BME280;2826;51.354;9.588;2022-07-22T13:07:37;98492.72;;;23.26;58.75
5609;BME280;2826;51.354;9.588;2022-07-22T13:10:04;98490.13;;;23.45;57.77
5609;BME280;2826;51.354;9.588;2022-07-22T13:12:32;98489.59;;;23.52;56.77
5609;BME280;2826;51.354;9.588;2022-07-22T13:14:59;98489.19;;;23.56;57.39
5609;BME280;2826;51.354;9.588;2022-07-22T13:17:26;98486.25;;;23.49;56.38
5609;BME280;2826;51.354;9.588;2022-07-22T13:19:53;98480.56;;;23.54;57.09
5609;BME280;2826;51.354;9.588;2022-07-22T13:22:20;98481.53;;;23.63;57.58
5609;BME280;2826;51.354;9.588;2022-07-22T13:24:47;98464.25;;;23.69;56.92
5609;BME280;2826;51.354;9.588;2022-07-22T13:27:13;98458.69;;;23.92;54.50
5609;BME280;2826;51.354;9.588;2022-07-22T13:29:42;98468.03;;;24.06;54.50
5609;BME280;2826;51.354;9.588;2022-07-22T13:32:09;98467.06;;;24.07;54.47
5609;BME280;2826;51.354;9.588;2022-07-22T13:34:36;98468.03;;;24.16;55.30
5609;BME280;2826;51.354;9.588;2022-07-22T13:37:03;98455.47;;;24.47;53.94
5609;BME280;2826;51.354;9.588;2022-07-22T13:39:29;98455.22;;;24.88;53.09
5609;BME280;2826;51.354;9.588;2022-07-22T13:41:56;98449.84;;;24.98;52.02
5609;BME280;2826;51.354;9.588;2022-07-22T13:44:23;98462.09;;;25.09;51.53
5609;BME280;2826;51.354;9.588;2022-07-22T13:46:51;98452.53;;;25.26;51.03
5609;BME280;2826;51.354;9.588;2022-07-22T13:49:18;98445.63;;;25.34;50.85
5609;BME280;2826;51.354;9.588;2022-07-22T13:51:44;98445.03;;;25.40;50.99
5609;BME280;2826;51.354;9.588;2022-07-22T13:54:11;98429.69;;;25.62;50.13
5609;BME280;2826;51.354;9.588;2022-07-22T13:56:38;98437.78;;;25.96;49.49
5609;BME280;2826;51.354;9.588;2022-07-22T13:59:05;98434.25;;;26.32;48.00
5609;BME280;2826;51.354;9.588;2022-07-22T14:01:32;98440.63;;;26.40;45.92
5609;BME280;2826;51.354;9.588;2022-07-22T14:04:00;98430.91;;;26.12;46.68
5609;BME280;2826;51.354;9.588;2022-07-22T14:06:28;98437.97;;;26.21;46.47
5609;BME280;2826;51.354;9.588;2022-07-22T14:08:54;98437.97;;;26.40;46.49
5609;BME280;2826;51.354;9.588;2022-07-22T14:11:21;98431.06;;;26.29;46.03
5609;BME280;2826;51.354;9.588;2022-07-22T14:13:52;98429.41;;;26.09;46.73
5609;BME280;2826;51.354;9.588;2022-07-22T14:16:19;98437.38;;;26.28;45.98
5609;BME280;2826;51.354;9.588;2022-07-22T14:19:03;98438.22;;;26.55;45.40
5609;BME280;2826;51.354;9.588;2022-07-22T14:21:34;98441.38;;;26.58;45.32
5609;BME280;2826;51.354;9.588;2022-07-22T14:24:01;98441.25;;;26.33;45.95
5609;BME280;2826;51.354;9.588;2022-07-22T14:26:29;98440.41;;;26.15;46.42
5609;BME280;2826;51.354;9.588;2022-07-22T14:28:55;98404.19;;;26.14;46.65
5609;BME280;2826;51.354;9.588;2022-07-22T14:31:22;98433.66;;;26.39;47.21